createdAt,value
2022-08-10T00:01:21.069Z,20.68
2022-08-10T00:04:10.180Z,20.58
2022-08-10T00:07:00.588Z,20.50
2022-08-10T00:12:54.371Z,20.41
2022-08-10T00:15:52.622Z,20.26
2022-08-10T00:20:59.692Z,20.14
2022-08-10T00:27:52.007Z,19.93
2022-08-10T00:29:22.627Z,19.79
2022-08-10T00:32:12.737Z,19.69
2022-08-10T00:35:02.173Z,19.72
2022-08-10T00:40:37.778Z,19.62
2022-08-10T00:43:27.625Z,19.53
2022-08-10T00:46:15.994Z,19.47
2022-08-10T00:49:04.572Z,19.43
2022-08-10T00:51:53.549Z,19.52
2022-08-10T00:54:44.379Z,19.49
2022-08-10T01:03:04.155Z,19.32
2022-08-10T01:12:28.651Z,19.43
2022-08-10T01:20:30.080Z,19.37
2022-08-10T01:29:53.276Z,19.22
2022-08-10T01:35:36.635Z,19.29
2022-08-10T01:38:27.540Z,19.12
2022-08-10T01:44:03.653Z,19.08
2022-08-10T01:49:39.632Z,19.01
2022-08-10T01:52:29.953Z,19.19
2022-08-10T01:55:19.366Z,18.98
2022-08-10T02:00:58.841Z,18.99
2022-08-10T02:06:43.195Z,19.04
2022-08-10T02:12:19.431Z,19.04
2022-08-10T02:15:13.827Z,18.93
2022-08-10T02:20:52.999Z,18.98
2022-08-10T02:23:44.694Z,18.96
2022-08-10T02:29:22.497Z,18.65
2022-08-10T02:35:01.221Z,18.78
2022-08-10T02:45:01.309Z,18.60
2022-08-10T02:49:49.472Z,18.58
2022-08-10T02:55:31.668Z,18.59
2022-08-10T03:01:10.218Z,18.56
2022-08-10T03:06:53.134Z,18.65
2022-08-10T03:09:42.766Z,18.60
2022-08-10T03:15:22.038Z,18.68
2022-08-10T03:21:02.012Z,18.35
2022-08-10T03:26:33.819Z,18.46
2022-08-10T03:32:14.355Z,18.22
2022-08-10T03:35:02.761Z,18.10
2022-08-10T03:40:45.999Z,17.89
2022-08-10T03:43:34.112Z,17.81
2022-08-10T03:46:26.655Z,18.02
2022-08-10T03:49:16.499Z,17.98
2022-08-10T03:54:53.366Z,17.72
2022-08-10T04:00:29.102Z,17.96
2022-08-10T04:03:18.645Z,17.88
2022-08-10T04:06:08.356Z,18.08
2022-08-10T04:11:45.957Z,17.99
2022-08-10T04:17:56.888Z,17.93
2022-08-10T04:23:04.416Z,17.73
2022-08-10T04:28:43.396Z,17.89
2022-08-10T04:31:33.354Z,17.87
2022-08-10T04:37:09.042Z,17.77
2022-08-10T04:42:43.403Z,17.64
2022-08-10T04:48:40.073Z,17.65
2022-08-10T04:54:05.111Z,17.68
2022-08-10T04:56:43.532Z,17.49
2022-08-10T04:59:32.114Z,17.41
2022-08-10T05:05:13.753Z,17.57
2022-08-10T05:08:01.806Z,17.41
2022-08-10T05:10:50.791Z,17.46
2022-08-10T05:16:21.010Z,18.40
2022-08-10T05:22:20.076Z,19.74
2022-08-10T05:27:52.482Z,21.62
2022-08-10T05:33:32.680Z,22.40
2022-08-10T05:39:17.404Z,23.32
2022-08-10T05:44:58.009Z,24.12
2022-08-10T05:50:35.823Z,23.03
2022-08-10T05:54:03.063Z,22.94
2022-08-10T05:59:03.432Z,22.41
2022-08-10T06:02:33.610Z,22.56
2022-08-10T06:07:35.832Z,23.59
2022-08-10T06:10:32.139Z,23.77
2022-08-10T06:13:57.951Z,24.05
2022-08-10T06:19:29.716Z,23.83
2022-08-10T06:25:32.065Z,23.61
2022-08-10T06:30:38.422Z,23.77
2022-08-10T06:39:22.982Z,24.90
2022-08-10T06:45:01.749Z,23.92
2022-08-10T06:53:21.849Z,24.05
2022-08-10T06:59:00.217Z,24.00
2022-08-10T07:04:39.415Z,23.63
2022-08-10T07:10:18.316Z,24.09
2022-08-10T07:15:59.978Z,23.67
2022-08-10T07:21:39.592Z,24.25
2022-08-10T07:24:28.704Z,23.73
2022-08-10T07:29:57.151Z,24.40
2022-08-10T07:35:26.476Z,24.61
2022-08-10T07:41:01.989Z,24.22
2022-08-10T07:46:37.349Z,23.43
2022-08-10T07:52:16.214Z,24.27
2022-08-10T07:55:06.516Z,24.21
2022-08-10T07:57:58.114Z,23.88
2022-08-10T08:03:39.687Z,24.47
2022-08-10T08:06:28.382Z,24.30
2022-08-10T08:14:55.447Z,23.69
2022-08-10T08:24:04.587Z,23.13
2022-08-10T08:31:32.749Z,23.84
2022-08-10T08:37:00.728Z,24.30
2022-08-10T08:43:12.335Z,24.55
2022-08-10T08:46:32.759Z,24.65
2022-08-10T08:52:28.234Z,24.98
2022-08-10T08:58:37.059Z,24.32
2022-08-10T09:04:45.991Z,24.73
2022-08-10T09:17:05.236Z,23.94
2022-08-10T09:19:57.721Z,24.08
2022-08-10T09:25:38.202Z,24.53
2022-08-10T09:36:21.069Z,24.72
2022-08-10T09:40:56.913Z,24.66
2022-08-10T09:48:31.564Z,24.72
2022-08-10T10:02:26.411Z,25.59
2022-08-10T10:08:12.815Z,25.67
2022-08-10T10:14:12.609Z,25.31
2022-08-10T10:22:58.262Z,25.78
2022-08-10T10:29:19.562Z,25.73
2022-08-10T10:31:35.165Z,25.53
2022-08-10T10:37:02.250Z,25.66
2022-08-10T10:39:53.104Z,25.56
2022-08-10T10:45:40.323Z,25.71
2022-08-10T10:51:15.783Z,25.44
2022-08-10T10:54:08.717Z,25.43
2022-08-10T10:59:55.257Z,25.91
2022-08-10T11:02:57.492Z,25.49
2022-08-10T11:14:25.005Z,26.29
2022-08-10T11:20:01.995Z,26.84
2022-08-10T11:25:30.220Z,27.21
2022-08-10T11:31:14.168Z,27.44
2022-08-10T11:34:47.610Z,26.86
2022-08-10T11:39:58.538Z,27.00
2022-08-10T11:45:36.576Z,26.70
2022-08-10T11:51:22.522Z,27.20
2022-08-10T11:59:59.002Z,27.34
2022-08-10T12:02:50.952Z,27.19
2022-08-10T12:05:52.158Z,26.87
2022-08-10T12:10:05.757Z,27.08
2022-08-10T12:11:27.042Z,27.07
2022-08-10T12:17:05.318Z,27.02
2022-08-10T12:22:54.987Z,27.12
2022-08-10T12:25:57.067Z,27.16
2022-08-10T12:31:25.152Z,27.27
2022-08-10T12:37:07.580Z,27.34
2022-08-10T12:42:42.173Z,27.69
2022-08-10T12:45:33.505Z,27.57
2022-08-10T12:51:13.799Z,28.06
2022-08-10T12:57:01.054Z,27.84
2022-08-10T13:02:37.510Z,27.66
2022-08-10T13:08:49.135Z,27.78
2022-08-10T13:14:27.148Z,27.87
2022-08-10T13:17:21.180Z,27.65
2022-08-10T13:20:16.120Z,27.67
2022-08-10T13:25:49.400Z,27.85
2022-08-10T13:32:04.509Z,27.75
2022-08-10T13:37:11.041Z,27.91
2022-08-10T13:42:49.904Z,27.77
2022-08-10T13:48:33.850Z,28.00
2022-08-10T13:54:12.584Z,28.12
2022-08-10T13:57:01.816Z,28.07
2022-08-10T14:00:33.731Z,28.13
2022-08-10T14:05:35.238Z,28.08
2022-08-10T14:08:26.773Z,28.12
2022-08-10T14:14:00.914Z,27.60
2022-08-10T14:19:38.306Z,27.69
2022-08-10T14:25:11.598Z,28.10
2022-08-10T14:28:04.051Z,28.18
2022-08-10T14:30:59.729Z,28.22
2022-08-10T14:39:38.186Z,27.67
2022-08-10T14:50:59.341Z,27.80
2022-08-10T14:56:39.208Z,27.78
2022-08-10T15:02:40.373Z,27.94
2022-08-10T15:05:11.979Z,27.99
2022-08-10T15:08:00.956Z,28.03
2022-08-10T15:13:38.580Z,28.12
2022-08-10T15:20:00.751Z,28.32
2022-08-10T15:25:02.931Z,28.08
2022-08-10T15:28:07.823Z,27.92
2022-08-10T15:34:04.984Z,28.02
2022-08-10T15:37:39.474Z,27.92
2022-08-10T15:40:22.612Z,27.80
2022-08-10T15:43:00.780Z,27.88
2022-08-10T15:48:43.596Z,27.89
2022-08-10T15:51:54.064Z,28.03
2022-08-10T15:57:15.078Z,27.77
2022-08-10T16:02:55.156Z,27.64
2022-08-10T16:08:26.915Z,27.64
2022-08-10T16:11:17.699Z,27.64
2022-08-10T16:16:57.705Z,27.57
2022-08-10T16:22:37.901Z,27.54
2022-08-10T16:25:48.552Z,27.49
2022-08-10T16:31:22.053Z,27.60
2022-08-10T16:37:02.424Z,27.45
2022-08-10T16:42:44.960Z,27.30
2022-08-10T16:48:49.091Z,27.51
2022-08-10T16:51:09.368Z,27.45
2022-08-10T16:56:49.757Z,27.67
2022-08-10T17:02:19.754Z,27.52
2022-08-10T17:08:04.939Z,27.35
2022-08-10T17:10:54.946Z,27.31
2022-08-10T17:13:44.564Z,27.32
2022-08-10T17:16:37.722Z,27.38
2022-08-10T17:22:17.293Z,27.20
2022-08-10T17:25:09.500Z,27.25
2022-08-10T17:30:58.163Z,26.89
2022-08-10T17:33:35.076Z,26.51
2022-08-10T17:36:25.529Z,26.51
2022-08-10T17:39:16.111Z,26.41
2022-08-10T17:42:08.428Z,26.36
2022-08-10T17:47:55.347Z,26.43
2022-08-10T17:50:45.247Z,26.40
2022-08-10T17:56:26.973Z,26.24
2022-08-10T17:59:17.520Z,26.19
2022-08-10T18:04:58.171Z,25.81
2022-08-10T18:10:34.476Z,25.81
2022-08-10T18:16:15.044Z,25.76
2022-08-10T18:19:06.482Z,25.71
2022-08-10T18:21:55.911Z,25.58
2022-08-10T18:28:01.191Z,25.40
2022-08-10T18:30:27.749Z,25.25
2022-08-10T18:36:03.269Z,25.07
2022-08-10T18:41:32.907Z,24.95
2022-08-10T18:47:14.130Z,24.83
2022-08-10T18:52:50.126Z,24.58
2022-08-10T18:58:43.941Z,24.56
2022-08-10T19:02:04.313Z,24.50
2022-08-10T19:08:08.029Z,24.49
2022-08-10T19:13:53.898Z,24.23
2022-08-10T19:19:33.995Z,23.94
2022-08-10T19:26:41.077Z,24.07
2022-08-10T19:31:06.515Z,23.99
2022-08-10T19:36:51.230Z,23.82
2022-08-10T19:39:51.144Z,23.71
2022-08-10T19:42:42.419Z,23.65
2022-08-10T19:48:19.669Z,23.65
2022-08-10T19:51:12.727Z,23.63
2022-08-10T19:57:19.050Z,23.50
2022-08-10T20:02:58.469Z,23.38
2022-08-10T20:08:39.978Z,23.32
2022-08-10T20:11:45.218Z,23.22
2022-08-10T20:20:08.630Z,23.10
2022-08-10T20:23:00.542Z,23.04
2022-08-10T20:25:56.380Z,23.09
2022-08-10T20:31:37.450Z,22.89
2022-08-10T20:37:41.412Z,22.90
2022-08-10T20:43:03.647Z,22.70
2022-08-10T20:48:57.776Z,22.60
2022-08-10T20:54:34.554Z,22.47
2022-08-10T21:03:36.118Z,22.41
2022-08-10T21:09:28.085Z,22.37
2022-08-10T21:15:46.859Z,22.23
2022-08-10T21:24:25.778Z,22.07
2022-08-10T21:30:18.366Z,22.07
2022-08-10T21:35:49.516Z,22.01
2022-08-10T21:41:57.085Z,21.92
2022-08-10T21:48:07.223Z,21.91
2022-08-10T21:53:50.097Z,21.82
2022-08-10T22:02:53.837Z,21.56
2022-08-10T22:08:54.035Z,21.55
2022-08-10T22:14:53.248Z,21.45
2022-08-10T22:20:54.749Z,21.39
2022-08-10T22:24:17.027Z,21.44
2022-08-10T22:30:18.840Z,21.34
2022-08-10T22:33:36.167Z,21.33
2022-08-10T22:42:32.492Z,21.22
2022-08-10T22:48:28.424Z,21.28
2022-08-10T22:54:30.729Z,21.10
2022-08-10T23:00:15.774Z,21.09
2022-08-10T23:05:54.399Z,21.12
2022-08-10T23:11:34.705Z,20.89
2022-08-10T23:14:32.964Z,20.93
2022-08-10T23:20:15.104Z,20.79
2022-08-10T23:25:57.279Z,20.90
2022-08-10T23:32:01.123Z,20.84
2022-08-10T23:34:27.575Z,20.76
2022-08-10T23:42:46.950Z,20.63
2022-08-10T23:48:26.489Z,20.59
2022-08-10T23:54:09.722Z,20.64
2022-08-10T23:57:01.417Z,20.67
2022-08-10T23:59:56.584Z,20.60
